sensor_id;sensor_type;location;lat;lon;timestamp;P1;durP1;ratioP1;P2;durP2;ratioP2
21645;SDS011;10984;45.712;4.800;2022-09-25T00:00:55;6.10;;;2.75;;
21645;SDS011;10984;45.712;4.800;2022-09-25T00:03:22;6.30;;;3.45;;
21645;SDS011;10984;45.712;4.800;2022-09-25T00:05:49;4.93;;;2.53;;
21645;SDS011;10984;45.712;4.800;2022-09-25T00:08:15;3.78;;;2.10;;
21645;SDS011;10984;45.712;4.800;2022-09-25T00:10:43;3.83;;;1.98;;
21645;SDS011;10984;45.712;4.800;2022-09-25T00:13:11;5.78;;;3.00;;
21645;SDS011;10984;45.712;4.800;2022-09-25T00:15:37;6.80;;;2.92;;
21645;SDS011;10984;45.712;4.800;2022-09-25T00:18:09;5.25;;;2.70;;
21645;SDS011;10984;45.712;4.800;2022-09-25T00:20:34;9.13;;;3.67;;
21645;SDS011;10984;45.712;4.800;2022-09-25T00:23:01;6.75;;;3.13;;
21645;SDS011;10984;45.712;4.800;2022-09-25T00:25:27;7.63;;;4.13;;
21645;SDS011;10984;45.712;4.800;2022-09-25T00:27:53;7.70;;;4.13;;
21645;SDS011;10984;45.712;4.800;2022-09-25T00:30:18;7.32;;;4.40;;
21645;SDS011;10984;45.712;4.800;2022-09-25T00:32:44;7.68;;;4.13;;
21645;SDS011;10984;45.712;4.800;2022-09-25T00:35:10;7.13;;;3.80;;
21645;SDS011;10984;45.712;4.800;2022-09-25T00:37:36;7.63;;;3.97;;
21645;SDS011;10984;45.712;4.800;2022-09-25T00:40:02;6.20;;;3.05;;
21645;SDS011;10984;45.712;4.800;2022-09-25T00:42:29;6.28;;;3.88;;
21645;SDS011;10984;45.712;4.800;2022-09-25T00:50:28;5.85;;;3.65;;
21645;SDS011;10984;45.712;4.800;2022-09-25T00:53:15;6.57;;;3.65;;
21645;SDS011;10984;45.712;4.800;2022-09-25T00:56:02;6.93;;;3.63;;
21645;SDS011;10984;45.712;4.800;2022-09-25T00:58:29;7.20;;;3.75;;
21645;SDS011;10984;45.712;4.800;2022-09-25T01:00:57;9.68;;;4.20;;
21645;SDS011;10984;45.712;4.800;2022-09-25T01:03:23;11.15;;;3.95;;
21645;SDS011;10984;45.712;4.800;2022-09-25T01:05:51;8.05;;;4.30;;
21645;SDS011;10984;45.712;4.800;2022-09-25T01:08:19;10.32;;;4.97;;
21645;SDS011;10984;45.712;4.800;2022-09-25T01:10:48;8.38;;;4.60;;
21645;SDS011;10984;45.712;4.800;2022-09-25T01:13:14;10.88;;;5.35;;
21645;SDS011;10984;45.712;4.800;2022-09-25T01:21:32;6.22;;;3.17;;
21645;SDS011;10984;45.712;4.800;2022-09-25T01:35:57;5.68;;;2.65;;
21645;SDS011;10984;45.712;4.800;2022-09-25T01:40:55;3.67;;;2.13;;
21645;SDS011;10984;45.712;4.800;2022-09-25T01:52:16;4.40;;;2.30;;
21645;SDS011;10984;45.712;4.800;2022-09-25T01:54:47;5.03;;;2.63;;
21645;SDS011;10984;45.712;4.800;2022-09-25T01:57:26;4.38;;;2.03;;
21645;SDS011;10984;45.712;4.800;2022-09-25T02:03:04;5.75;;;2.53;;
21645;SDS011;10984;45.712;4.800;2022-09-25T02:08:26;4.75;;;2.30;;
21645;SDS011;10984;45.712;4.800;2022-09-25T02:11:12;4.13;;;2.20;;
21645;SDS011;10984;45.712;4.800;2022-09-25T02:14:01;4.25;;;1.92;;
21645;SDS011;10984;45.712;4.800;2022-09-25T02:16:42;6.60;;;2.42;;
21645;SDS011;10984;45.712;4.800;2022-09-25T02:19:12;5.93;;;2.13;;
21645;SDS011;10984;45.712;4.800;2022-09-25T02:27:43;4.30;;;1.92;;
21645;SDS011;10984;45.712;4.800;2022-09-25T02:30:10;3.97;;;1.98;;
21645;SDS011;10984;45.712;4.800;2022-09-25T02:32:36;4.35;;;2.42;;
21645;SDS011;10984;45.712;4.800;2022-09-25T02:35:02;4.18;;;2.30;;
21645;SDS011;10984;45.712;4.800;2022-09-25T02:37:28;5.55;;;2.03;;
21645;SDS011;10984;45.712;4.800;2022-09-25T02:39:55;4.25;;;2.20;;
21645;SDS011;10984;45.712;4.800;2022-09-25T02:51:28;3.58;;;1.95;;
21645;SDS011;10984;45.712;4.800;2022-09-25T02:59:38;4.13;;;2.10;;
21645;SDS011;10984;45.712;4.800;2022-09-25T03:02:08;5.05;;;2.30;;
21645;SDS011;10984;45.712;4.800;2022-09-25T03:04:35;5.97;;;2.33;;
21645;SDS011;10984;45.712;4.800;2022-09-25T03:07:02;4.57;;;2.40;;
21645;SDS011;10984;45.712;4.800;2022-09-25T03:09:30;4.82;;;1.92;;
21645;SDS011;10984;45.712;4.800;2022-09-25T03:12:00;4.93;;;2.22;;
21645;SDS011;10984;45.712;4.800;2022-09-25T03:14:29;4.45;;;1.77;;
21645;SDS011;10984;45.712;4.800;2022-09-25T03:16:55;4.43;;;2.30;;
21645;SDS011;10984;45.712;4.800;2022-09-25T03:22:07;5.07;;;1.73;;
21645;SDS011;10984;45.712;4.800;2022-09-25T03:24:33;3.75;;;1.63;;
21645;SDS011;10984;45.712;4.800;2022-09-25T03:26:59;3.53;;;1.77;;
21645;SDS011;10984;45.712;4.800;2022-09-25T03:29:24;4.47;;;2.03;;
21645;SDS011;10984;45.712;4.800;2022-09-25T03:31:50;4.93;;;2.15;;
21645;SDS011;10984;45.712;4.800;2022-09-25T03:34:16;3.95;;;2.10;;
21645;SDS011;10984;45.712;4.800;2022-09-25T03:36:43;5.18;;;2.05;;
21645;SDS011;10984;45.712;4.800;2022-09-25T03:39:11;3.92;;;2.20;;
21645;SDS011;10984;45.712;4.800;2022-09-25T03:41:39;2.75;;;1.63;;
21645;SDS011;10984;45.712;4.800;2022-09-25T03:44:05;8.23;;;1.85;;
21645;SDS011;10984;45.712;4.800;2022-09-25T03:46:31;3.45;;;1.63;;
21645;SDS011;10984;45.712;4.800;2022-09-25T03:48:58;2.70;;;1.38;;
21645;SDS011;10984;45.712;4.800;2022-09-25T03:51:25;1.88;;;1.20;;
21645;SDS011;10984;45.712;4.800;2022-09-25T03:53:53;5.82;;;1.52;;
21645;SDS011;10984;45.712;4.800;2022-09-25T03:59:04;3.47;;;1.17;;
21645;SDS011;10984;45.712;4.800;2022-09-25T04:01:29;4.63;;;1.40;;
21645;SDS011;10984;45.712;4.800;2022-09-25T04:03:55;2.65;;;1.23;;
21645;SDS011;10984;45.712;4.800;2022-09-25T04:06:22;2.08;;;0.90;;
21645;SDS011;10984;45.712;4.800;2022-09-25T04:08:49;3.22;;;0.93;;
21645;SDS011;10984;45.712;4.800;2022-09-25T04:11:16;2.58;;;1.27;;
21645;SDS011;10984;45.712;4.800;2022-09-25T04:13:43;2.80;;;1.20;;
21645;SDS011;10984;45.712;4.800;2022-09-25T04:16:09;1.33;;;0.70;;
21645;SDS011;10984;45.712;4.800;2022-09-25T04:18:36;2.13;;;1.00;;
21645;SDS011;10984;45.712;4.800;2022-09-25T04:21:04;3.72;;;1.52;;
21645;SDS011;10984;45.712;4.800;2022-09-25T04:23:32;2.72;;;1.10;;
21645;SDS011;10984;45.712;4.800;2022-09-25T04:25:58;3.92;;;0.98;;
21645;SDS011;10984;45.712;4.800;2022-09-25T04:28:24;1.95;;;0.90;;
21645;SDS011;10984;45.712;4.800;2022-09-25T04:30:50;2.20;;;1.20;;
21645;SDS011;10984;45.712;4.800;2022-09-25T04:33:17;2.78;;;1.20;;
21645;SDS011;10984;45.712;4.800;2022-09-25T04:36:02;2.10;;;0.90;;
21645;SDS011;10984;45.712;4.800;2022-09-25T04:38:28;3.05;;;1.33;;
21645;SDS011;10984;45.712;4.800;2022-09-25T04:41:13;2.83;;;1.25;;
21645;SDS011;10984;45.712;4.800;2022-09-25T04:43:40;2.20;;;1.10;;
21645;SDS011;10984;45.712;4.800;2022-09-25T04:46:08;2.78;;;1.15;;
21645;SDS011;10984;45.712;4.800;2022-09-25T04:48:35;2.33;;;1.23;;
21645;SDS011;10984;45.712;4.800;2022-09-25T04:51:02;2.20;;;1.13;;
21645;SDS011;10984;45.712;4.800;2022-09-25T04:53:28;4.50;;;1.40;;
21645;SDS011;10984;45.712;4.800;2022-09-25T05:01:24;3.17;;;1.27;;
21645;SDS011;10984;45.712;4.800;2022-09-25T05:03:50;2.90;;;1.30;;
21645;SDS011;10984;45.712;4.800;2022-09-25T05:06:35;2.83;;;1.40;;
21645;SDS011;10984;45.712;4.800;2022-09-25T05:09:00;2.40;;;1.10;;
21645;SDS011;10984;45.712;4.800;2022-09-25T05:11:27;2.72;;;1.55;;
21645;SDS011;10984;45.712;4.800;2022-09-25T05:13:52;2.58;;;1.30;;
21645;SDS011;10984;45.712;4.800;2022-09-25T05:16:18;4.32;;;1.58;;
21645;SDS011;10984;45.712;4.800;2022-09-25T05:18:44;2.45;;;1.23;;
21645;SDS011;10984;45.712;4.800;2022-09-25T05:21:10;3.20;;;1.45;;
21645;SDS011;10984;45.712;4.800;2022-09-25T05:23:36;3.35;;;1.10;;
21645;SDS011;10984;45.712;4.800;2022-09-25T05:26:01;4.20;;;1.30;;
21645;SDS011;10984;45.712;4.800;2022-09-25T05:28:28;2.25;;;1.05;;
21645;SDS011;10984;45.712;4.800;2022-09-25T05:30:57;3.47;;;1.15;;
21645;SDS011;10984;45.712;4.800;2022-09-25T05:33:25;2.10;;;1.08;;
21645;SDS011;10984;45.712;4.800;2022-09-25T05:35:50;3.75;;;1.58;;
21645;SDS011;10984;45.712;4.800;2022-09-25T05:38:16;2.70;;;1.40;;
21645;SDS011;10984;45.712;4.800;2022-09-25T05:40:42;2.70;;;1.35;;
21645;SDS011;10984;45.712;4.800;2022-09-25T05:43:07;5.15;;;1.20;;
21645;SDS011;10984;45.712;4.800;2022-09-25T05:45:33;2.95;;;1.30;;
21645;SDS011;10984;45.712;4.800;2022-09-25T05:48:00;2.80;;;1.30;;
21645;SDS011;10984;45.712;4.800;2022-09-25T05:50:49;2.38;;;1.23;;
21645;SDS011;10984;45.712;4.800;2022-09-25T05:53:33;5.35;;;1.85;;
21645;SDS011;10984;45.712;4.800;2022-09-25T05:56:00;8.75;;;1.95;;
21645;SDS011;10984;45.712;4.800;2022-09-25T05:58:28;4.93;;;1.60;;
21645;SDS011;10984;45.712;4.800;2022-09-25T06:00:55;3.20;;;1.40;;
21645;SDS011;10984;45.712;4.800;2022-09-25T06:03:25;3.05;;;1.25;;
21645;SDS011;10984;45.712;4.800;2022-09-25T06:05:54;3.17;;;1.65;;
21645;SDS011;10984;45.712;4.800;2022-09-25T06:08:38;3.10;;;1.50;;
21645;SDS011;10984;45.712;4.800;2022-09-25T06:11:04;3.45;;;1.23;;
21645;SDS011;10984;45.712;4.800;2022-09-25T06:13:30;3.40;;;1.40;;
21645;SDS011;10984;45.712;4.800;2022-09-25T06:15:57;3.35;;;1.70;;
21645;SDS011;10984;45.712;4.800;2022-09-25T06:18:23;3.22;;;1.60;;
21645;SDS011;10984;45.712;4.800;2022-09-25T06:20:50;3.03;;;1.25;;
21645;SDS011;10984;45.712;4.800;2022-09-25T06:23:16;2.63;;;1.17;;
21645;SDS011;10984;45.712;4.800;2022-09-25T06:25:42;3.40;;;1.52;;
21645;SDS011;10984;45.712;4.800;2022-09-25T06:28:09;2.95;;;1.38;;
21645;SDS011;10984;45.712;4.800;2022-09-25T06:30:36;4.82;;;1.83;;
21645;SDS011;10984;45.712;4.800;2022-09-25T06:33:03;4.32;;;1.85;;
21645;SDS011;10984;45.712;4.800;2022-09-25T06:35:35;7.50;;;2.10;;
21645;SDS011;10984;45.712;4.800;2022-09-25T06:38:04;5.03;;;2.05;;
21645;SDS011;10984;45.712;4.800;2022-09-25T06:40:30;3.97;;;2.15;;
21645;SDS011;10984;45.712;4.800;2022-09-25T06:42:57;8.07;;;3.00;;
21645;SDS011;10984;45.712;4.800;2022-09-25T06:45:27;4.40;;;2.05;;
21645;SDS011;10984;45.712;4.800;2022-09-25T06:50:42;4.55;;;1.40;;
21645;SDS011;10984;45.712;4.800;2022-09-25T06:53:11;3.65;;;1.70;;
21645;SDS011;10984;45.712;4.800;2022-09-25T06:55:38;4.15;;;1.45;;
21645;SDS011;10984;45.712;4.800;2022-09-25T06:58:04;3.33;;;1.65;;
21645;SDS011;10984;45.712;4.800;2022-09-25T07:00:31;4.35;;;1.50;;
21645;SDS011;10984;45.712;4.800;2022-09-25T07:02:57;2.92;;;1.50;;
21645;SDS011;10984;45.712;4.800;2022-09-25T07:05:42;5.68;;;2.08;;
21645;SDS011;10984;45.712;4.800;2022-09-25T07:08:09;4.15;;;1.60;;
21645;SDS011;10984;45.712;4.800;2022-09-25T07:10:37;3.00;;;1.35;;
21645;SDS011;10984;45.712;4.800;2022-09-25T07:13:03;3.22;;;1.23;;
21645;SDS011;10984;45.712;4.800;2022-09-25T07:15:29;2.60;;;1.50;;
21645;SDS011;10984;45.712;4.800;2022-09-25T07:17:55;2.92;;;1.52;;
21645;SDS011;10984;45.712;4.800;2022-09-25T07:20:21;3.35;;;1.63;;
21645;SDS011;10984;45.712;4.800;2022-09-25T07:22:46;5.97;;;1.98;;
21645;SDS011;10984;45.712;4.800;2022-09-25T07:25:12;4.53;;;1.70;;
21645;SDS011;10984;45.712;4.800;2022-09-25T07:27:38;3.80;;;1.70;;
21645;SDS011;10984;45.712;4.800;2022-09-25T07:30:04;4.20;;;2.17;;
21645;SDS011;10984;45.712;4.800;2022-09-25T07:32:31;3.38;;;1.80;;
21645;SDS011;10984;45.712;4.800;2022-09-25T07:34:57;4.88;;;1.90;;
21645;SDS011;10984;45.712;4.800;2022-09-25T07:37:23;2.90;;;1.60;;
21645;SDS011;10984;45.712;4.800;2022-09-25T07:39:49;4.20;;;1.60;;
21645;SDS011;10984;45.712;4.800;2022-09-25T07:42:14;4.97;;;2.40;;
21645;SDS011;10984;45.712;4.800;2022-09-25T07:44:41;4.35;;;2.65;;
21645;SDS011;10984;45.712;4.800;2022-09-25T07:47:07;6.03;;;2.50;;
21645;SDS011;10984;45.712;4.800;2022-09-25T07:49:34;3.40;;;2.22;;
21645;SDS011;10984;45.712;4.800;2022-09-25T07:52:00;4.15;;;1.95;;
21645;SDS011;10984;45.712;4.800;2022-09-25T07:54:26;5.13;;;2.20;;
21645;SDS011;10984;45.712;4.800;2022-09-25T07:56:52;4.45;;;2.20;;
21645;SDS011;10984;45.712;4.800;2022-09-25T07:59:18;4.38;;;1.83;;
21645;SDS011;10984;45.712;4.800;2022-09-25T08:01:44;2.85;;;1.42;;
21645;SDS011;10984;45.712;4.800;2022-09-25T08:04:09;3.47;;;1.77;;
21645;SDS011;10984;45.712;4.800;2022-09-25T08:06:35;3.90;;;1.70;;
21645;SDS011;10984;45.712;4.800;2022-09-25T08:09:02;3.75;;;1.90;;
21645;SDS011;10984;45.712;4.800;2022-09-25T08:11:28;3.35;;;1.67;;
21645;SDS011;10984;45.712;4.800;2022-09-25T08:13:55;3.83;;;1.63;;
21645;SDS011;10984;45.712;4.800;2022-09-25T08:16:21;2.80;;;1.50;;
21645;SDS011;10984;45.712;4.800;2022-09-25T08:18:47;3.60;;;1.63;;
21645;SDS011;10984;45.712;4.800;2022-09-25T08:21:15;2.88;;;1.52;;
21645;SDS011;10984;45.712;4.800;2022-09-25T08:23:43;3.10;;;1.77;;
21645;SDS011;10984;45.712;4.800;2022-09-25T08:26:13;3.90;;;1.60;;
21645;SDS011;10984;45.712;4.800;2022-09-25T08:28:42;4.35;;;1.98;;
21645;SDS011;10984;45.712;4.800;2022-09-25T08:31:08;4.82;;;1.88;;
21645;SDS011;10984;45.712;4.800;2022-09-25T08:33:34;8.60;;;1.90;;
21645;SDS011;10984;45.712;4.800;2022-09-25T08:36:01;4.90;;;1.95;;
21645;SDS011;10984;45.712;4.800;2022-09-25T08:38:28;4.32;;;2.15;;
21645;SDS011;10984;45.712;4.800;2022-09-25T08:55:56;2.28;;;1.20;;
21645;SDS011;10984;45.712;4.800;2022-09-25T08:58:43;2.63;;;1.23;;
21645;SDS011;10984;45.712;4.800;2022-09-25T09:04:04;2.90;;;1.30;;
21645;SDS011;10984;45.712;4.800;2022-09-25T09:06:38;3.00;;;1.35;;
21645;SDS011;10984;45.712;4.800;2022-09-25T09:09:28;3.35;;;1.40;;
21645;SDS011;10984;45.712;4.800;2022-09-25T09:15:04;3.20;;;1.42;;
21645;SDS011;10984;45.712;4.800;2022-09-25T09:17:50;3.35;;;1.38;;
21645;SDS011;10984;45.712;4.800;2022-09-25T09:20:18;2.88;;;1.20;;
21645;SDS011;10984;45.712;4.800;2022-09-25T09:22:51;2.35;;;1.20;;
21645;SDS011;10984;45.712;4.800;2022-09-25T09:28:16;3.78;;;1.58;;
21645;SDS011;10984;45.712;4.800;2022-09-25T09:54:39;3.47;;;1.70;;
21645;SDS011;10984;45.712;4.800;2022-09-25T10:06:00;2.55;;;1.30;;
21645;SDS011;10984;45.712;4.800;2022-09-25T10:08:45;2.47;;;1.25;;
21645;SDS011;10984;45.712;4.800;2022-09-25T10:11:19;3.00;;;1.35;;
21645;SDS011;10984;45.712;4.800;2022-09-25T10:13:45;2.80;;;1.38;;
21645;SDS011;10984;45.712;4.800;2022-09-25T10:27:24;3.70;;;1.88;;
21645;SDS011;10984;45.712;4.800;2022-09-25T10:35:44;2.85;;;1.30;;
21645;SDS011;10984;45.712;4.800;2022-09-25T10:41:14;2.50;;;1.30;;
21645;SDS011;10984;45.712;4.800;2022-09-25T10:44:00;3.20;;;1.63;;
21645;SDS011;10984;45.712;4.800;2022-09-25T10:49:31;2.92;;;1.30;;
21645;SDS011;10984;45.712;4.800;2022-09-25T10:52:27;2.55;;;1.42;;
21645;SDS011;10984;45.712;4.800;2022-09-25T10:55:08;2.65;;;1.20;;
21645;SDS011;10984;45.712;4.800;2022-09-25T10:57:38;3.00;;;1.27;;
21645;SDS011;10984;45.712;4.800;2022-09-25T11:00:18;5.03;;;1.10;;
21645;SDS011;10984;45.712;4.800;2022-09-25T11:02:45;2.25;;;0.95;;
21645;SDS011;10984;45.712;4.800;2022-09-25T11:07:59;2.45;;;0.90;;
21645;SDS011;10984;45.712;4.800;2022-09-25T11:10:29;1.52;;;0.65;;
21645;SDS011;10984;45.712;4.800;2022-09-25T11:12:59;2.80;;;1.15;;
21645;SDS011;10984;45.712;4.800;2022-09-25T11:15:41;1.85;;;0.90;;
21645;SDS011;10984;45.712;4.800;2022-09-25T11:21:01;2.50;;;1.00;;
21645;SDS011;10984;45.712;4.800;2022-09-25T11:23:32;2.45;;;1.00;;
21645;SDS011;10984;45.712;4.800;2022-09-25T11:26:18;1.92;;;1.08;;
21645;SDS011;10984;45.712;4.800;2022-09-25T11:49:51;1.00;;;0.40;;
21645;SDS011;10984;45.712;4.800;2022-09-25T11:57:32;1.73;;;0.70;;
21645;SDS011;10984;45.712;4.800;2022-09-25T12:44:23;1.15;;;0.50;;
21645;SDS011;10984;45.712;4.800;2022-09-25T12:52:14;1.40;;;0.30;;
21645;SDS011;10984;45.712;4.800;2022-09-25T13:00:50;0.50;;;0.20;;
21645;SDS011;10984;45.712;4.800;2022-09-25T13:17:58;0.77;;;0.20;;
21645;SDS011;10984;45.712;4.800;2022-09-25T13:26:16;0.45;;;0.20;;
21645;SDS011;10984;45.712;4.800;2022-09-25T13:31:46;1.67;;;0.20;;
21645;SDS011;10984;45.712;4.800;2022-09-25T13:34:13;0.50;;;0.20;;
21645;SDS011;10984;45.712;4.800;2022-09-25T13:42:33;0.65;;;0.28;;
21645;SDS011;10984;45.712;4.800;2022-09-25T13:53:59;1.10;;;0.40;;
21645;SDS011;10984;45.712;4.800;2022-09-25T14:04:49;0.30;;;0.10;;
21645;SDS011;10984;45.712;4.800;2022-09-25T14:10:00;0.38;;;0.15;;
21645;SDS011;10984;45.712;4.800;2022-09-25T14:17:59;1.08;;;0.40;;
21645;SDS011;10984;45.712;4.800;2022-09-25T14:20:31;1.70;;;0.52;;
21645;SDS011;10984;45.712;4.800;2022-09-25T14:28:58;2.50;;;0.93;;
21645;SDS011;10984;45.712;4.800;2022-09-25T14:48:51;0.30;;;0.10;;
21645;SDS011;10984;45.712;4.800;2022-09-25T14:54:06;0.68;;;0.20;;
21645;SDS011;10984;45.712;4.800;2022-09-25T14:56:36;0.75;;;0.30;;
21645;SDS011;10984;45.712;4.800;2022-09-25T15:04:50;0.43;;;0.10;;
21645;SDS011;10984;45.712;4.800;2022-09-25T15:07:22;0.88;;;0.35;;
21645;SDS011;10984;45.712;4.800;2022-09-25T15:09:49;0.60;;;0.30;;
21645;SDS011;10984;45.712;4.800;2022-09-25T15:23:17;1.05;;;0.20;;
21645;SDS011;10984;45.712;4.800;2022-09-25T15:25:48;2.10;;;0.50;;
21645;SDS011;10984;45.712;4.800;2022-09-25T15:28:17;1.15;;;0.47;;
21645;SDS011;10984;45.712;4.800;2022-09-25T15:33:32;0.85;;;0.30;;
21645;SDS011;10984;45.712;4.800;2022-09-25T15:36:22;1.10;;;0.30;;
21645;SDS011;10984;45.712;4.800;2022-09-25T15:41:53;0.30;;;0.20;;
21645;SDS011;10984;45.712;4.800;2022-09-25T15:47:03;0.52;;;0.20;;
21645;SDS011;10984;45.712;4.800;2022-09-25T15:49:30;0.65;;;0.20;;
21645;SDS011;10984;45.712;4.800;2022-09-25T15:51:59;0.70;;;0.22;;
21645;SDS011;10984;45.712;4.800;2022-09-25T15:57:14;1.77;;;0.50;;
21645;SDS011;10984;45.712;4.800;2022-09-25T15:59:47;2.28;;;0.47;;
21645;SDS011;10984;45.712;4.800;2022-09-25T16:02:33;0.80;;;0.40;;
21645;SDS011;10984;45.712;4.800;2022-09-25T16:05:39;0.82;;;0.20;;
21645;SDS011;10984;45.712;4.800;2022-09-25T16:17:01;1.05;;;0.40;;
21645;SDS011;10984;45.712;4.800;2022-09-25T16:19:29;1.85;;;0.50;;
21645;SDS011;10984;45.712;4.800;2022-09-25T16:21:58;1.90;;;0.60;;
21645;SDS011;10984;45.712;4.800;2022-09-25T16:24:36;1.50;;;0.45;;
21645;SDS011;10984;45.712;4.800;2022-09-25T16:27:03;0.63;;;0.30;;
21645;SDS011;10984;45.712;4.800;2022-09-25T16:29:30;1.65;;;0.40;;
21645;SDS011;10984;45.712;4.800;2022-09-25T16:31:59;1.02;;;0.40;;
21645;SDS011;10984;45.712;4.800;2022-09-25T16:34:29;0.65;;;0.35;;
21645;SDS011;10984;45.712;4.800;2022-09-25T16:37:01;1.10;;;0.40;;
21645;SDS011;10984;45.712;4.800;2022-09-25T16:42:32;1.23;;;0.50;;
21645;SDS011;10984;45.712;4.800;2022-09-25T16:45:18;0.75;;;0.40;;
21645;SDS011;10984;45.712;4.800;2022-09-25T16:47:47;1.25;;;0.50;;
21645;SDS011;10984;45.712;4.800;2022-09-25T16:50:14;0.90;;;0.38;;
21645;SDS011;10984;45.712;4.800;2022-09-25T16:52:40;1.50;;;0.60;;
21645;SDS011;10984;45.712;4.800;2022-09-25T16:58:11;1.80;;;0.70;;
21645;SDS011;10984;45.712;4.800;2022-09-25T17:00:36;2.40;;;0.50;;
21645;SDS011;10984;45.712;4.800;2022-09-25T17:03:02;1.20;;;0.50;;
21645;SDS011;10984;45.712;4.800;2022-09-25T17:05:28;1.83;;;0.75;;
21645;SDS011;10984;45.712;4.800;2022-09-25T17:10:58;1.65;;;0.60;;
21645;SDS011;10984;45.712;4.800;2022-09-25T17:13:25;1.30;;;0.60;;
21645;SDS011;10984;45.712;4.800;2022-09-25T17:15:52;2.75;;;0.80;;
21645;SDS011;10984;45.712;4.800;2022-09-25T17:18:20;1.30;;;0.60;;
21645;SDS011;10984;45.712;4.800;2022-09-25T17:20:49;1.88;;;0.60;;
21645;SDS011;10984;45.712;4.800;2022-09-25T17:23:20;1.02;;;0.50;;
21645;SDS011;10984;45.712;4.800;2022-09-25T17:28:49;2.10;;;0.70;;
21645;SDS011;10984;45.712;4.800;2022-09-25T17:31:16;1.23;;;0.50;;
21645;SDS011;10984;45.712;4.800;2022-09-25T17:33:44;2.13;;;0.80;;
21645;SDS011;10984;45.712;4.800;2022-09-25T17:36:30;2.60;;;0.82;;
21645;SDS011;10984;45.712;4.800;2022-09-25T17:38:55;3.35;;;1.08;;
21645;SDS011;10984;45.712;4.800;2022-09-25T17:44:05;2.38;;;0.77;;
21645;SDS011;10984;45.712;4.800;2022-09-25T17:46:35;2.25;;;0.80;;
21645;SDS011;10984;45.712;4.800;2022-09-25T17:49:01;2.08;;;0.80;;
21645;SDS011;10984;45.712;4.800;2022-09-25T17:51:28;1.23;;;0.68;;
21645;SDS011;10984;45.712;4.800;2022-09-25T17:53:54;1.98;;;0.73;;
21645;SDS011;10984;45.712;4.800;2022-09-25T17:56:22;2.80;;;1.08;;
21645;SDS011;10984;45.712;4.800;2022-09-25T17:58:48;2.03;;;0.80;;
21645;SDS011;10984;45.712;4.800;2022-09-25T18:01:19;1.77;;;0.77;;
21645;SDS011;10984;45.712;4.800;2022-09-25T18:06:49;2.70;;;1.00;;
21645;SDS011;10984;45.712;4.800;2022-09-25T18:09:15;2.45;;;1.00;;
21645;SDS011;10984;45.712;4.800;2022-09-25T18:11:41;2.08;;;0.98;;
21645;SDS011;10984;45.712;4.800;2022-09-25T18:14:11;3.00;;;1.20;;
21645;SDS011;10984;45.712;4.800;2022-09-25T18:16:39;4.07;;;1.38;;
21645;SDS011;10984;45.712;4.800;2022-09-25T18:19:09;3.50;;;1.25;;
21645;SDS011;10984;45.712;4.800;2022-09-25T18:22:15;3.60;;;1.55;;
21645;SDS011;10984;45.712;4.800;2022-09-25T18:24:41;4.05;;;1.80;;
21645;SDS011;10984;45.712;4.800;2022-09-25T18:27:07;4.05;;;1.80;;
21645;SDS011;10984;45.712;4.800;2022-09-25T18:29:32;3.20;;;1.70;;
21645;SDS011;10984;45.712;4.800;2022-09-25T18:32:00;2.92;;;1.65;;
21645;SDS011;10984;45.712;4.800;2022-09-25T18:34:26;3.75;;;1.80;;
21645;SDS011;10984;45.712;4.800;2022-09-25T18:36:53;3.17;;;1.58;;
21645;SDS011;10984;45.712;4.800;2022-09-25T18:39:19;3.25;;;1.65;;
21645;SDS011;10984;45.712;4.800;2022-09-25T18:41:45;3.85;;;1.30;;
21645;SDS011;10984;45.712;4.800;2022-09-25T18:44:11;2.20;;;1.02;;
21645;SDS011;10984;45.712;4.800;2022-09-25T18:46:37;2.47;;;1.10;;
21645;SDS011;10984;45.712;4.800;2022-09-25T18:49:03;3.45;;;1.08;;
21645;SDS011;10984;45.712;4.800;2022-09-25T18:51:30;2.63;;;0.82;;
21645;SDS011;10984;45.712;4.800;2022-09-25T18:53:57;3.30;;;1.27;;
21645;SDS011;10984;45.712;4.800;2022-09-25T18:56:23;2.08;;;0.88;;
21645;SDS011;10984;45.712;4.800;2022-09-25T18:58:48;2.53;;;1.15;;
21645;SDS011;10984;45.712;4.800;2022-09-25T19:01:15;5.50;;;1.40;;
21645;SDS011;10984;45.712;4.800;2022-09-25T19:03:41;2.97;;;1.40;;
21645;SDS011;10984;45.712;4.800;2022-09-25T19:06:07;2.55;;;0.98;;
21645;SDS011;10984;45.712;4.800;2022-09-25T19:08:33;2.85;;;1.10;;
21645;SDS011;10984;45.712;4.800;2022-09-25T19:11:00;3.80;;;1.05;;
21645;SDS011;10984;45.712;4.800;2022-09-25T19:13:26;3.55;;;1.00;;
21645;SDS011;10984;45.712;4.800;2022-09-25T19:15:53;3.75;;;1.30;;
21645;SDS011;10984;45.712;4.800;2022-09-25T19:18:19;4.70;;;1.30;;
21645;SDS011;10984;45.712;4.800;2022-09-25T19:20:46;2.58;;;1.10;;
21645;SDS011;10984;45.712;4.800;2022-09-25T19:23:18;2.67;;;1.38;;
21645;SDS011;10984;45.712;4.800;2022-09-25T19:28:30;2.53;;;1.20;;
21645;SDS011;10984;45.712;4.800;2022-09-25T19:31:07;2.33;;;1.25;;
21645;SDS011;10984;45.712;4.800;2022-09-25T19:33:37;3.03;;;1.20;;
21645;SDS011;10984;45.712;4.800;2022-09-25T19:38:49;4.40;;;1.80;;
21645;SDS011;10984;45.712;4.800;2022-09-25T19:41:16;1.85;;;1.00;;
21645;SDS011;10984;45.712;4.800;2022-09-25T19:44:04;3.22;;;1.30;;
21645;SDS011;10984;45.712;4.800;2022-09-25T19:46:33;3.05;;;1.65;;
21645;SDS011;10984;45.712;4.800;2022-09-25T19:48:59;4.32;;;1.60;;
21645;SDS011;10984;45.712;4.800;2022-09-25T19:51:25;2.58;;;1.30;;
21645;SDS011;10984;45.712;4.800;2022-09-25T19:53:51;4.28;;;1.50;;
21645;SDS011;10984;45.712;4.800;2022-09-25T19:56:17;2.70;;;1.50;;
21645;SDS011;10984;45.712;4.800;2022-09-25T20:01:30;4.32;;;1.98;;
21645;SDS011;10984;45.712;4.800;2022-09-25T20:03:57;4.75;;;1.58;;
21645;SDS011;10984;45.712;4.800;2022-09-25T20:06:23;3.42;;;1.30;;
21645;SDS011;10984;45.712;4.800;2022-09-25T20:08:59;3.70;;;1.33;;
21645;SDS011;10984;45.712;4.800;2022-09-25T20:11:25;3.45;;;1.42;;
21645;SDS011;10984;45.712;4.800;2022-09-25T20:13:53;2.55;;;1.33;;
21645;SDS011;10984;45.712;4.800;2022-09-25T20:16:20;3.33;;;1.50;;
21645;SDS011;10984;45.712;4.800;2022-09-25T20:18:49;3.03;;;1.30;;
21645;SDS011;10984;45.712;4.800;2022-09-25T20:21:17;3.42;;;1.48;;
21645;SDS011;10984;45.712;4.800;2022-09-25T20:23:47;3.30;;;1.60;;
21645;SDS011;10984;45.712;4.800;2022-09-25T20:26:15;2.65;;;1.50;;
21645;SDS011;10984;45.712;4.800;2022-09-25T20:28:41;4.00;;;1.83;;
21645;SDS011;10984;45.712;4.800;2022-09-25T20:31:08;3.40;;;1.60;;
21645;SDS011;10984;45.712;4.800;2022-09-25T20:33:36;3.63;;;1.77;;
21645;SDS011;10984;45.712;4.800;2022-09-25T20:36:03;5.35;;;2.30;;
21645;SDS011;10984;45.712;4.800;2022-09-25T20:38:30;7.70;;;2.00;;
21645;SDS011;10984;45.712;4.800;2022-09-25T20:43:41;3.67;;;1.67;;
21645;SDS011;10984;45.712;4.800;2022-09-25T20:46:09;6.22;;;1.70;;
21645;SDS011;10984;45.712;4.800;2022-09-25T20:48:37;4.32;;;1.80;;
21645;SDS011;10984;45.712;4.800;2022-09-25T20:51:05;3.88;;;1.98;;
21645;SDS011;10984;45.712;4.800;2022-09-25T20:53:52;4.25;;;2.17;;
21645;SDS011;10984;45.712;4.800;2022-09-25T20:56:20;5.97;;;1.92;;
21645;SDS011;10984;45.712;4.800;2022-09-25T20:58:46;3.83;;;2.13;;
21645;SDS011;10984;45.712;4.800;2022-09-25T21:01:16;4.47;;;2.53;;
21645;SDS011;10984;45.712;4.800;2022-09-25T21:03:44;3.20;;;1.58;;
21645;SDS011;10984;45.712;4.800;2022-09-25T21:06:12;5.38;;;1.98;;
21645;SDS011;10984;45.712;4.800;2022-09-25T21:08:39;4.47;;;2.25;;
21645;SDS011;10984;45.712;4.800;2022-09-25T21:11:05;5.45;;;2.53;;
21645;SDS011;10984;45.712;4.800;2022-09-25T21:13:33;4.07;;;2.05;;
21645;SDS011;10984;45.712;4.800;2022-09-25T21:18:49;5.32;;;2.13;;
21645;SDS011;10984;45.712;4.800;2022-09-25T21:21:16;6.38;;;2.10;;
21645;SDS011;10984;45.712;4.800;2022-09-25T21:23:45;4.78;;;2.40;;
21645;SDS011;10984;45.712;4.800;2022-09-25T21:26:13;3.78;;;2.05;;
21645;SDS011;10984;45.712;4.800;2022-09-25T21:31:27;4.90;;;2.30;;
21645;SDS011;10984;45.712;4.800;2022-09-25T21:34:12;5.25;;;2.60;;